Time;durP1;ratioP1;P1;durP2;ratioP2;P2;SDS_P1;SDS_P2;PMS_P1;PMS_P2;Temp;Humidity;BMP_temperature;BMP_pressure;BME280_temperature;BME280_humidity;BME280_pressure;Samples;Min_cycle;Max_cycle;Signal;HPM_P1;HPM_P2
2023/06/30 00:02:13;;;;;;;525.38;485.88;;;;;;;;;;5066456;28;20540;-65
2023/06/30 00:04:40;;;;;;;536.15;496.02;;;;;;;;;;5050586;28;20053;-66
2023/06/30 00:07:08;;;;;;;552.42;509.80;;;;;;;;;;5068437;28;20048;-65
2023/06/30 00:09:35;;;;;;;537.75;498.02;;;;;;;;;;5054425;28;20374;-65
2023/06/30 00:12:02;;;;;;;553.67;512.90;;;;;;;;;;5065405;28;20047;-65
2023/06/30 00:14:28;;;;;;;550.92;511.35;;;;;;;;;;5061975;28;20049;-65
2023/06/30 00:16:56;;;;;;;535.40;496.45;;;;;;;;;;5067056;28;20040;-65
2023/06/30 00:19:24;;;;;;;546.30;504.92;;;;;;;;;;5063804;28;20083;-66
2023/06/30 00:21:52;;;;;;;530.80;489.55;;;;;;;;;;5066115;28;20509;-66
2023/06/30 00:24:19;;;;;;;536.83;497.38;;;;;;;;;;5066896;28;20045;-67
2023/06/30 00:26:45;;;;;;;523.30;484.80;;;;;;;;;;5051851;28;20609;-68
2023/06/30 00:29:12;;;;;;;536.28;497.35;;;;;;;;;;5062043;28;20069;-65
2023/06/30 00:31:38;;;;;;;554.83;514.42;;;;;;;;;;5070711;28;20032;-64
2023/06/30 00:34:05;;;;;;;581.72;532.65;;;;;;;;;;5047178;28;20040;-64
2023/06/30 00:36:33;;;;;;;564.70;522.95;;;;;;;;;;5051527;28;20131;-67
2023/06/30 00:39:00;;;;;;;564.40;522.28;;;;;;;;;;5066746;28;20151;-65
2023/06/30 00:41:27;;;;;;;560.55;519.40;;;;;;;;;;5048760;28;20453;-65
2023/06/30 00:43:55;;;;;;;571.60;527.65;;;;;;;;;;5064436;28;20125;-65
2023/06/30 00:46:22;;;;;;;570.92;528.67;;;;;;;;;;5065284;28;20049;-66
2023/06/30 00:48:49;;;;;;;571.97;528.30;;;;;;;;;;5065331;28;20516;-66
2023/06/30 00:51:19;;;;;;;570.58;528.22;;;;;;;;;;5064145;28;20095;-65
2023/06/30 00:53:47;;;;;;;584.00;538.50;;;;;;;;;;5067191;28;20055;-66
2023/06/30 00:56:13;;;;;;;581.58;537.90;;;;;;;;;;5048316;28;20049;-64
2023/06/30 00:58:40;;;;;;;575.10;532.17;;;;;;;;;;5070698;28;20045;-64
2023/06/30 01:01:12;;;;;;;595.40;545.63;;;;;;;;;;5071515;28;20041;-65
2023/06/30 01:03:41;;;;;;;581.67;536.95;;;;;;;;;;5055742;28;20055;-67
2023/06/30 01:06:24;;;;;;;586.30;541.28;;;;;;;;;;5038353;28;20059;-64
2023/06/30 01:08:53;;;;;;;582.13;537.20;;;;;;;;;;5066750;28;20044;-65
2023/06/30 01:11:20;;;;;;;583.03;539.03;;;;;;;;;;5068947;28;20044;-65
2023/06/30 01:13:47;;;;;;;578.05;532.60;;;;;;;;;;5046045;28;20053;-66
2023/06/30 01:16:15;;;;;;;573.13;528.17;;;;;;;;;;5051069;28;20076;-65
2023/06/30 01:18:44;;;;;;;574.22;531.10;;;;;;;;;;5065612;28;20040;-66
2023/06/30 01:21:14;;;;;;;570.30;528.17;;;;;;;;;;5070256;28;20409;-65
2023/06/30 01:23:47;;;;;;;576.50;532.78;;;;;;;;;;5045801;28;20048;-68
2023/06/30 01:26:15;;;;;;;582.22;538.33;;;;;;;;;;5067650;28;20414;-65
2023/06/30 01:28:42;;;;;;;576.78;530.60;;;;;;;;;;5071344;28;20040;-66
2023/06/30 01:31:09;;;;;;;578.60;534.20;;;;;;;;;;5068411;28;20048;-66
2023/06/30 01:33:39;;;;;;;584.95;539.70;;;;;;;;;;5048811;28;20075;-64
2023/06/30 01:36:09;;;;;;;583.85;538.78;;;;;;;;;;5069764;28;20045;-65
2023/06/30 01:38:36;;;;;;;582.97;536.75;;;;;;;;;;5067979;28;20102;-65
2023/06/30 01:41:04;;;;;;;577.78;533.38;;;;;;;;;;5051147;28;20063;-64
2023/06/30 01:43:31;;;;;;;577.92;534.10;;;;;;;;;;5067142;28;20049;-65
2023/06/30 01:45:58;;;;;;;590.08;541.78;;;;;;;;;;5071436;28;20041;-64
2023/06/30 01:48:25;;;;;;;563.15;521.03;;;;;;;;;;5074079;28;20068;-65
2023/06/30 01:50:53;;;;;;;568.53;525.67;;;;;;;;;;5062222;28;20047;-64
2023/06/30 01:53:21;;;;;;;564.38;521.22;;;;;;;;;;5053203;28;20090;-65
2023/06/30 01:55:47;;;;;;;576.60;532.78;;;;;;;;;;5070404;28;20123;-67
2023/06/30 01:58:16;;;;;;;567.47;522.83;;;;;;;;;;5045606;28;20028;-66
2023/06/30 02:03:48;;;;;;;566.28;522.25;;;;;;;;;;5090170;28;20060;-64
2023/06/30 02:06:15;;;;;;;571.78;527.40;;;;;;;;;;5092000;28;20404;-65
2023/06/30 02:08:41;;;;;;;565.42;521.75;;;;;;;;;;5074388;28;20044;-65
2023/06/30 02:11:08;;;;;;;560.78;518.38;;;;;;;;;;5106805;28;20072;-64
2023/06/30 02:13:35;;;;;;;560.63;516.90;;;;;;;;;;5074377;28;20046;-64
2023/06/30 02:16:01;;;;;;;596.53;544.15;;;;;;;;;;5090823;28;20040;-65
2023/06/30 02:18:28;;;;;;;566.58;521.92;;;;;;;;;;5093258;28;20058;-65
2023/06/30 02:20:55;;;;;;;559.65;516.55;;;;;;;;;;5094263;28;20047;-65
2023/06/30 02:23:22;;;;;;;563.28;519.90;;;;;;;;;;5091704;28;20040;-65
2023/06/30 02:25:49;;;;;;;558.53;516.92;;;;;;;;;;5090783;28;20641;-65
2023/06/30 02:28:15;;;;;;;560.38;515.65;;;;;;;;;;5092337;28;20109;-65
2023/06/30 02:30:43;;;;;;;569.50;525.35;;;;;;;;;;5074849;28;20413;-64
2023/06/30 02:33:09;;;;;;;558.72;516.17;;;;;;;;;;5091442;28;20543;-64
2023/06/30 02:35:36;;;;;;;562.42;519.83;;;;;;;;;;5073656;28;20537;-64
2023/06/30 02:38:03;;;;;;;570.50;525.17;;;;;;;;;;5073487;28;20039;-64
2023/06/30 02:40:30;;;;;;;572.33;527.10;;;;;;;;;;5073461;28;20047;-64
2023/06/30 02:42:57;;;;;;;566.05;520.60;;;;;;;;;;5073783;28;20133;-66
2023/06/30 02:45:24;;;;;;;562.13;517.35;;;;;;;;;;5073815;28;20072;-64
2023/06/30 02:47:50;;;;;;;562.83;518.03;;;;;;;;;;5107083;27;20501;-65
2023/06/30 02:50:18;;;;;;;557.78;516.22;;;;;;;;;;5091397;28;20052;-65
2023/06/30 02:52:44;;;;;;;572.13;524.88;;;;;;;;;;5091396;28;20487;-64
2023/06/30 02:55:11;;;;;;;570.40;523.13;;;;;;;;;;5091243;28;20744;-65
2023/06/30 02:57:38;;;;;;;550.80;508.13;;;;;;;;;;5075000;28;20044;-65
2023/06/30 03:00:06;;;;;;;549.03;507.58;;;;;;;;;;5073417;28;20135;-66
2023/06/30 03:02:33;;;;;;;572.83;525.33;;;;;;;;;;5072710;28;20076;-65
2023/06/30 03:05:00;;;;;;;571.00;525.65;;;;;;;;;;5073380;28;20052;-64
2023/06/30 03:07:28;;;;;;;575.38;528.95;;;;;;;;;;5073485;28;20189;-66
2023/06/30 03:09:55;;;;;;;588.00;535.22;;;;;;;;;;5072720;28;20047;-64
2023/06/30 03:12:22;;;;;;;556.28;512.55;;;;;;;;;;5091985;28;20083;-64
2023/06/30 03:14:49;;;;;;;566.85;523.63;;;;;;;;;;5093457;28;20044;-64
2023/06/30 03:17:15;;;;;;;585.55;538.58;;;;;;;;;;5106616;28;20048;-64
2023/06/30 03:19:42;;;;;;;590.78;543.20;;;;;;;;;;5090282;28;20105;-64
2023/06/30 03:22:08;;;;;;;609.80;560.28;;;;;;;;;;5106497;28;20051;-65
2023/06/30 03:24:35;;;;;;;624.70;575.92;;;;;;;;;;5092220;28;20044;-64
2023/06/30 03:27:03;;;;;;;618.78;571.13;;;;;;;;;;5106401;28;20051;-64
2023/06/30 03:29:29;;;;;;;618.60;571.53;;;;;;;;;;5059104;28;20063;-65
2023/06/30 03:31:56;;;;;;;607.72;562.00;;;;;;;;;;5083040;28;20047;-63
2023/06/30 03:34:23;;;;;;;625.72;577.80;;;;;;;;;;5072956;28;20422;-64
2023/06/30 03:36:50;;;;;;;622.80;575.75;;;;;;;;;;5107898;28;20077;-65
2023/06/30 03:39:19;;;;;;;631.28;580.42;;;;;;;;;;5056930;28;20040;-64
2023/06/30 03:41:45;;;;;;;627.30;579.45;;;;;;;;;;5072713;28;20414;-64
2023/06/30 03:44:13;;;;;;;632.75;583.85;;;;;;;;;;5071885;28;20048;-64
2023/06/30 03:46:40;;;;;;;633.58;584.30;;;;;;;;;;5086919;28;20044;-65
2023/06/30 03:49:07;;;;;;;652.80;599.78;;;;;;;;;;5090669;28;20123;-67
2023/06/30 03:51:36;;;;;;;635.55;588.20;;;;;;;;;;5074139;28;20047;-65
2023/06/30 03:54:02;;;;;;;637.42;587.35;;;;;;;;;;5090658;28;20173;-63
2023/06/30 03:56:29;;;;;;;623.50;576.05;;;;;;;;;;5073366;28;20036;-65
2023/06/30 03:58:56;;;;;;;609.65;562.88;;;;;;;;;;5072050;28;20040;-65
2023/06/30 04:01:23;;;;;;;604.13;557.15;;;;;;;;;;5106333;28;20044;-66
2023/06/30 04:03:51;;;;;;;578.50;536.40;;;;;;;;;;5068138;28;20504;-65
2023/06/30 04:06:18;;;;;;;605.08;559.75;;;;;;;;;;5073985;28;20507;-64
2023/06/30 04:08:45;;;;;;;605.10;557.53;;;;;;;;;;5073886;28;20548;-67
2023/06/30 04:11:12;;;;;;;601.00;554.13;;;;;;;;;;5090661;28;20039;-64
2023/06/30 04:13:39;;;;;;;578.78;536.42;;;;;;;;;;5091396;28;20428;-67
2023/06/30 04:16:05;;;;;;;606.53;555.55;;;;;;;;;;5090118;28;20032;-64
2023/06/30 04:18:32;;;;;;;586.97;541.55;;;;;;;;;;5082085;28;20394;-66
2023/06/30 04:20:59;;;;;;;580.38;536.10;;;;;;;;;;5108810;28;20036;-65
2023/06/30 04:23:25;;;;;;;585.67;540.72;;;;;;;;;;5090445;28;20051;-64
2023/06/30 04:25:52;;;;;;;596.63;550.95;;;;;;;;;;5089876;28;20067;-67
2023/06/30 04:28:18;;;;;;;592.53;547.47;;;;;;;;;;5090685;28;20039;-65
2023/06/30 04:30:45;;;;;;;591.38;545.40;;;;;;;;;;5072643;28;20055;-66
2023/06/30 04:33:12;;;;;;;594.38;549.30;;;;;;;;;;5089820;28;20478;-67
2023/06/30 04:35:43;;;;;;;593.92;549.40;;;;;;;;;;5088311;28;20119;-64
2023/06/30 04:38:10;;;;;;;603.85;558.58;;;;;;;;;;5089786;28;20350;-66
2023/06/30 04:40:37;;;;;;;621.15;573.25;;;;;;;;;;5089820;28;20040;-65
2023/06/30 04:43:11;;;;;;;642.75;589.92;;;;;;;;;;5089787;28;20048;-65
2023/06/30 04:45:40;;;;;;;622.40;573.83;;;;;;;;;;5089484;28;20048;-65
2023/06/30 04:48:07;;;;;;;599.85;554.45;;;;;;;;;;5090033;28;20112;-68
2023/06/30 04:50:34;;;;;;;598.10;552.45;;;;;;;;;;5089712;28;20097;-66
2023/06/30 04:53:01;;;;;;;624.17;573.67;;;;;;;;;;5088197;28;20135;-61
2023/06/30 04:55:28;;;;;;;630.05;582.00;;;;;;;;;;5086304;28;20048;-65
2023/06/30 04:57:56;;;;;;;636.83;587.42;;;;;;;;;;5072798;28;20081;-66
2023/06/30 05:00:23;;;;;;;641.38;591.10;;;;;;;;;;5089311;28;20048;-63
2023/06/30 05:02:49;;;;;;;649.92;599.63;;;;;;;;;;5089456;28;20051;-62
2023/06/30 05:05:16;;;;;;;664.53;612.30;;;;;;;;;;5071924;28;20059;-62
2023/06/30 05:07:43;;;;;;;661.83;609.97;;;;;;;;;;5091085;28;20056;-61
2023/06/30 05:10:09;;;;;;;699.00;640.28;;;;;;;;;;5070890;28;20062;-62
2023/06/30 05:12:36;;;;;;;694.47;638.80;;;;;;;;;;5072727;28;20075;-61
2023/06/30 05:15:03;;;;;;;722.90;662.90;;;;;;;;;;5089405;28;20055;-61
2023/06/30 05:17:29;;;;;;;730.65;672.40;;;;;;;;;;5070894;28;20089;-61
2023/06/30 05:19:56;;;;;;;737.05;677.38;;;;;;;;;;5089924;28;20039;-62
2023/06/30 05:22:23;;;;;;;774.38;710.53;;;;;;;;;;5106588;28;20054;-63
2023/06/30 05:24:49;;;;;;;759.30;697.30;;;;;;;;;;5072716;28;20054;-61
2023/06/30 05:27:18;;;;;;;745.58;685.10;;;;;;;;;;5070953;28;20505;-60
2023/06/30 05:29:44;;;;;;;770.80;708.72;;;;;;;;;;5088621;28;20114;-61
2023/06/30 05:32:11;;;;;;;814.63;746.63;;;;;;;;;;5071394;28;20046;-61
2023/06/30 05:34:38;;;;;;;767.97;705.28;;;;;;;;;;5090002;28;20036;-61
2023/06/30 05:37:04;;;;;;;808.95;738.90;;;;;;;;;;5089496;28;20126;-62
2023/06/30 05:39:31;;;;;;;830.97;762.75;;;;;;;;;;5072280;28;20136;-62
2023/06/30 05:41:57;;;;;;;884.78;813.25;;;;;;;;;;5090416;28;20101;-62
2023/06/30 05:44:24;;;;;;;894.42;819.92;;;;;;;;;;5089143;28;20040;-61
2023/06/30 05:46:51;;;;;;;908.05;832.83;;;;;;;;;;5093349;28;20040;-64
2023/06/30 05:49:17;;;;;;;978.13;896.53;;;;;;;;;;5075005;28;20140;-63
2023/06/30 05:51:44;;;;;;;1113.32;999.90;;;;;;;;;;5076235;28;20515;-60
2023/06/30 05:54:10;;;;;;;1020.50;935.88;;;;;;;;;;5093381;28;20075;-63
2023/06/30 05:56:37;;;;;;;1008.33;923.28;;;;;;;;;;5092263;28;20043;-63
2023/06/30 05:59:04;;;;;;;1069.35;978.63;;;;;;;;;;5084762;28;20068;-66
2023/06/30 06:01:31;;;;;;;939.20;860.50;;;;;;;;;;5092568;28;20047;-63
2023/06/30 06:03:57;;;;;;;898.85;820.33;;;;;;;;;;5075062;28;20484;-66
2023/06/30 06:06:24;;;;;;;852.65;779.53;;;;;;;;;;5093745;28;20469;-62
2023/06/30 06:15:21;;;;;;;821.90;751.73;;;;;;;;;;1319229;26;20477;-63
2023/06/30 06:17:48;;;;;;;798.83;730.33;;;;;;;;;;5092553;28;20303;-64
2023/06/30 06:20:14;;;;;;;814.75;745.17;;;;;;;;;;5090429;28;20044;-63
2023/06/30 06:22:41;;;;;;;809.50;738.70;;;;;;;;;;5091728;28;20048;-65
2023/06/30 06:25:08;;;;;;;833.10;757.03;;;;;;;;;;5074423;28;20048;-63
2023/06/30 06:27:37;;;;;;;810.75;740.08;;;;;;;;;;5091413;28;20075;-63
2023/06/30 06:30:04;;;;;;;816.00;744.45;;;;;;;;;;5074065;28;20047;-63
2023/06/30 06:32:31;;;;;;;823.25;751.13;;;;;;;;;;5091661;28;20044;-64
2023/06/30 06:34:57;;;;;;;829.80;756.63;;;;;;;;;;5081163;28;20493;-63
2023/06/30 06:37:24;;;;;;;841.55;768.08;;;;;;;;;;5092210;28;20527;-64
2023/06/30 06:39:54;;;;;;;846.92;771.17;;;;;;;;;;5092828;28;20052;-63
2023/06/30 06:42:20;;;;;;;861.08;785.97;;;;;;;;;;5091896;28;20109;-63
2023/06/30 06:44:47;;;;;;;845.47;772.25;;;;;;;;;;5065098;28;20055;-63
2023/06/30 06:47:32;;;;;;;851.85;777.25;;;;;;;;;;5091695;28;20101;-64
2023/06/30 06:50:00;;;;;;;855.40;781.30;;;;;;;;;;5088640;28;20408;-64
2023/06/30 06:52:27;;;;;;;873.60;795.97;;;;;;;;;;5091586;28;20466;-63
2023/06/30 06:54:55;;;;;;;876.35;799.10;;;;;;;;;;5092874;28;20051;-68
2023/06/30 06:57:22;;;;;;;858.90;782.90;;;;;;;;;;5092566;28;20501;-62
2023/06/30 06:59:49;;;;;;;886.22;807.67;;;;;;;;;;5091495;28;20044;-64
2023/06/30 07:02:15;;;;;;;856.35;780.85;;;;;;;;;;5073100;28;20044;-63
2023/06/30 07:04:43;;;;;;;851.47;775.55;;;;;;;;;;5056533;28;20580;-64
2023/06/30 07:07:09;;;;;;;903.10;821.25;;;;;;;;;;5073527;28;20066;-62
2023/06/30 07:09:36;;;;;;;896.85;818.17;;;;;;;;;;5075050;28;20044;-63
2023/06/30 07:12:03;;;;;;;855.75;779.78;;;;;;;;;;5091119;28;20135;-63
2023/06/30 07:14:30;;;;;;;854.17;778.75;;;;;;;;;;5073127;28;20044;-65
2023/06/30 07:16:56;;;;;;;866.05;788.78;;;;;;;;;;5084447;28;20044;-63
2023/06/30 07:19:23;;;;;;;865.78;787.67;;;;;;;;;;5072987;28;20044;-63
2023/06/30 07:21:51;;;;;;;881.28;802.53;;;;;;;;;;5092364;28;20044;-63
2023/06/30 07:24:17;;;;;;;863.97;787.60;;;;;;;;;;5072661;28;20109;-62
2023/06/30 07:26:44;;;;;;;850.72;775.10;;;;;;;;;;5090978;28;20052;-63
2023/06/30 07:29:11;;;;;;;881.38;802.28;;;;;;;;;;5080655;28;20064;-63
2023/06/30 07:31:37;;;;;;;874.40;796.80;;;;;;;;;;5087615;28;20063;-63
2023/06/30 07:34:04;;;;;;;924.22;838.35;;;;;;;;;;5091430;28;20491;-63
2023/06/30 07:36:31;;;;;;;946.28;861.03;;;;;;;;;;5074230;28;20539;-63
2023/06/30 07:38:58;;;;;;;961.40;874.63;;;;;;;;;;5090796;28;20134;-63
2023/06/30 07:41:34;;;;;;;978.13;890.92;;;;;;;;;;5090841;28;20598;-62
2023/06/30 07:44:01;;;;;;;1006.70;915.90;;;;;;;;;;5086664;28;20040;-63
2023/06/30 07:46:28;;;;;;;1035.07;942.97;;;;;;;;;;5091270;28;20058;-64
2023/06/30 07:48:55;;;;;;;1043.05;951.45;;;;;;;;;;5057455;28;20139;-62
2023/06/30 07:51:21;;;;;;;1017.28;927.60;;;;;;;;;;5091045;28;20067;-62
2023/06/30 07:53:48;;;;;;;1025.20;936.25;;;;;;;;;;5072545;28;20432;-63
2023/06/30 07:56:15;;;;;;;1013.30;925.45;;;;;;;;;;5090687;28;20047;-63
2023/06/30 07:58:41;;;;;;;1034.05;945.50;;;;;;;;;;5086783;28;20049;-63
2023/06/30 08:01:08;;;;;;;1057.63;965.60;;;;;;;;;;5064682;28;20052;-63
2023/06/30 08:03:34;;;;;;;1106.07;999.90;;;;;;;;;;5073318;28;20048;-62
2023/06/30 08:06:02;;;;;;;1116.93;999.90;;;;;;;;;;5071989;28;20067;-62
2023/06/30 08:08:32;;;;;;;1122.40;999.90;;;;;;;;;;5081079;28;20509;-62
2023/06/30 08:10:59;;;;;;;1092.55;998.88;;;;;;;;;;5086899;28;20067;-63
2023/06/30 08:13:25;;;;;;;1051.32;962.50;;;;;;;;;;5080863;28;20052;-62
2023/06/30 08:15:52;;;;;;;1037.25;950.88;;;;;;;;;;5080414;28;20048;-64
2023/06/30 08:18:20;;;;;;;1050.43;962.78;;;;;;;;;;5090559;28;20122;-65
2023/06/30 08:20:59;;;;;;;1018.40;932.55;;;;;;;;;;5090172;28;20050;-63
2023/06/30 08:23:26;;;;;;;1052.43;965.33;;;;;;;;;;5090540;28;20047;-62
2023/06/30 08:25:54;;;;;;;1051.07;964.80;;;;;;;;;;5090234;28;20048;-62
2023/06/30 08:28:21;;;;;;;1071.30;980.08;;;;;;;;;;5072063;28;20052;-65
2023/06/30 08:30:48;;;;;;;1051.30;963.17;;;;;;;;;;5091179;28;20094;-63
2023/06/30 08:33:15;;;;;;;1016.03;931.83;;;;;;;;;;5090220;28;20052;-64
2023/06/30 08:36:00;;;;;;;1026.35;941.15;;;;;;;;;;5088863;28;20130;-63
2023/06/30 08:38:27;;;;;;;1011.22;927.78;;;;;;;;;;5090133;28;20048;-63
2023/06/30 08:40:54;;;;;;;1021.42;936.72;;;;;;;;;;5090160;28;20036;-64
2023/06/30 08:43:21;;;;;;;999.00;915.75;;;;;;;;;;5089167;28;20394;-63
2023/06/30 08:45:48;;;;;;;1000.30;917.58;;;;;;;;;;5091261;28;20036;-63
2023/06/30 08:48:16;;;;;;;1007.58;924.80;;;;;;;;;;5090085;28;20052;-63
2023/06/30 08:50:43;;;;;;;994.75;913.42;;;;;;;;;;5080628;28;20116;-65
2023/06/30 08:53:10;;;;;;;992.25;909.85;;;;;;;;;;5089692;28;20181;-63
2023/06/30 08:55:37;;;;;;;963.90;884.10;;;;;;;;;;5090181;28;20461;-63
2023/06/30 08:58:04;;;;;;;973.15;892.35;;;;;;;;;;5090690;28;20051;-63
2023/06/30 09:00:42;;;;;;;964.83;885.67;;;;;;;;;;5089881;28;20410;-63
2023/06/30 09:03:09;;;;;;;956.17;877.63;;;;;;;;;;5089835;28;20101;-62
2023/06/30 09:05:36;;;;;;;946.47;868.20;;;;;;;;;;5071962;28;20048;-64
2023/06/30 09:08:10;;;;;;;940.20;862.92;;;;;;;;;;5083057;28;20128;-63
2023/06/30 09:10:37;;;;;;;935.75;858.45;;;;;;;;;;5090196;28;20032;-62
2023/06/30 09:13:04;;;;;;;935.78;857.40;;;;;;;;;;5090621;28;20051;-62
2023/06/30 09:15:31;;;;;;;921.83;847.28;;;;;;;;;;5091641;28;20155;-64
2023/06/30 09:17:58;;;;;;;922.40;847.10;;;;;;;;;;5078399;28;20554;-62
2023/06/30 09:20:24;;;;;;;926.65;851.08;;;;;;;;;;5093536;28;20036;-63
2023/06/30 09:22:51;;;;;;;942.10;865.10;;;;;;;;;;5075386;28;20037;-63
2023/06/30 09:25:25;;;;;;;971.17;892.00;;;;;;;;;;5084277;28;20409;-63
2023/06/30 09:27:55;;;;;;;986.38;905.95;;;;;;;;;;5094857;28;20051;-63
2023/06/30 09:30:31;;;;;;;1013.80;930.88;;;;;;;;;;5070480;28;20056;-63
2023/06/30 09:32:58;;;;;;;1059.35;969.58;;;;;;;;;;5075407;28;20496;-63
2023/06/30 09:35:24;;;;;;;1078.03;987.30;;;;;;;;;;5090321;28;20043;-63
2023/06/30 09:37:53;;;;;;;1078.97;985.58;;;;;;;;;;5075196;28;20404;-64
2023/06/30 09:40:26;;;;;;;1061.93;971.33;;;;;;;;;;5075505;28;20036;-64
2023/06/30 09:42:53;;;;;;;;;;;;;;;;;;5094878;28;20044;-63
2023/06/30 09:45:20;;;;;;;1029.35;943.38;;;;;;;;;;5093782;28;20002;-64
2023/06/30 09:47:53;;;;;;;982.13;900.47;;;;;;;;;;5093383;28;20135;-62
2023/06/30 09:50:27;;;;;;;942.05;863.15;;;;;;;;;;5068441;28;20516;-63
2023/06/30 09:52:53;;;;;;;905.22;832.67;;;;;;;;;;5084207;28;20431;-62
2023/06/30 09:55:20;;;;;;;921.42;845.97;;;;;;;;;;5075937;28;20119;-65
2023/06/30 09:57:47;;;;;;;918.38;843.85;;;;;;;;;;5094623;28;20512;-64
2023/06/30 10:00:14;;;;;;;948.40;871.30;;;;;;;;;;5074509;28;20075;-63
2023/06/30 10:03:04;;;;;;;946.13;869.90;;;;;;;;;;5084517;28;20555;-62
2023/06/30 10:05:31;;;;;;;959.85;882.05;;;;;;;;;;5094088;28;20044;-63
2023/06/30 10:08:01;;;;;;;943.25;865.70;;;;;;;;;;5079209;28;20474;-63
2023/06/30 10:10:28;;;;;;;928.42;853.20;;;;;;;;;;5078709;28;20059;-64
2023/06/30 10:13:16;;;;;;;954.78;877.80;;;;;;;;;;5104475;22;20109;-63
2023/06/30 10:28:58;;;;;;;925.15;849.92;;;;;;;;;;3344171;26;20416;-63
2023/06/30 10:31:30;;;;;;;939.30;863.42;;;;;;;;;;5086370;28;20036;-63
2023/06/30 10:33:57;;;;;;;943.65;867.42;;;;;;;;;;5076489;28;20527;-63
2023/06/30 10:36:24;;;;;;;981.80;901.90;;;;;;;;;;5096058;28;20497;-63
2023/06/30 10:38:51;;;;;;;993.75;913.33;;;;;;;;;;5088819;28;20138;-62
2023/06/30 10:41:19;;;;;;;994.75;913.05;;;;;;;;;;5099684;28;20024;-63
2023/06/30 10:44:01;;;;;;;989.45;909.13;;;;;;;;;;5098574;28;20048;-63
2023/06/30 10:46:43;;;;;;;1030.65;946.70;;;;;;;;;;5088139;28;20052;-62
2023/06/30 10:49:19;;;;;;;1079.28;987.40;;;;;;;;;;5097170;28;20063;-63
2023/06/30 10:51:46;;;;;;;1058.50;970.97;;;;;;;;;;5077945;28;20072;-62
2023/06/30 10:54:39;;;;;;;1034.10;949.08;;;;;;;;;;5086290;28;20085;-64
2023/06/30 10:57:06;;;;;;;;;;;;;;;;;;5082708;28;20056;-64
2023/06/30 10:59:37;;;;;;;999.53;918.10;;;;;;;;;;5093904;28;19927;-63
2023/06/30 11:02:22;;;;;;;1005.83;922.72;;;;;;;;;;5088194;28;20032;-63
2023/06/30 11:04:52;;;;;;;979.42;900.97;;;;;;;;;;5092624;28;20044;-63
2023/06/30 11:07:26;;;;;;;1006.60;921.85;;;;;;;;;;5098338;28;20036;-63
2023/06/30 11:09:59;;;;;;;1045.88;958.42;;;;;;;;;;5097636;28;20036;-63
2023/06/30 11:12:26;;;;;;;1047.70;961.58;;;;;;;;;;5097347;28;20059;-66
2023/06/30 11:14:56;;;;;;;1006.42;923.25;;;;;;;;;;5095252;28;20040;-63
2023/06/30 11:17:23;;;;;;;1011.42;928.92;;;;;;;;;;5086476;28;20051;-63
2023/06/30 11:20:12;;;;;;;1026.40;943.20;;;;;;;;;;5086808;28;20156;-64
2023/06/30 11:22:39;;;;;;;1063.97;973.88;;;;;;;;;;5070055;28;20123;-63
2023/06/30 11:25:13;;;;;;;1081.32;986.65;;;;;;;;;;5094802;28;20032;-63
2023/06/30 11:27:40;;;;;;;1061.85;973.17;;;;;;;;;;5088045;28;20134;-63
2023/06/30 11:30:07;;;;;;;1045.10;958.47;;;;;;;;;;5086449;28;20044;-64
2023/06/30 11:32:36;;;;;;;1025.03;940.22;;;;;;;;;;5046783;28;20048;-63
2023/06/30 11:35:07;;;;;;;1021.00;938.13;;;;;;;;;;5084135;28;20032;-63
2023/06/30 11:37:37;;;;;;;1015.60;932.00;;;;;;;;;;5068247;28;20048;-63
2023/06/30 11:40:06;;;;;;;1025.57;940.63;;;;;;;;;;5080483;28;20046;-66
2023/06/30 11:42:38;;;;;;;1021.88;936.85;;;;;;;;;;5048388;28;20099;-62
2023/06/30 11:45:05;;;;;;;1038.57;952.63;;;;;;;;;;5082176;28;20040;-65
2023/06/30 11:47:33;;;;;;;1081.82;990.47;;;;;;;;;;5084417;28;20048;-63
2023/06/30 11:50:07;;;;;;;1067.03;977.72;;;;;;;;;;5065320;28;20048;-63
2023/06/30 11:52:34;;;;;;;1066.32;976.90;;;;;;;;;;5081258;28;20155;-63
2023/06/30 11:55:08;;;;;;;1049.95;963.70;;;;;;;;;;5080826;28;20049;-65
2023/06/30 11:57:36;;;;;;;1040.30;954.80;;;;;;;;;;5083176;28;20051;-63
2023/06/30 12:00:24;;;;;;;999.42;917.58;;;;;;;;;;5070399;28;20135;-63
2023/06/30 12:02:55;;;;;;;964.40;885.65;;;;;;;;;;5074064;28;20104;-66
2023/06/30 12:05:26;;;;;;;1001.17;918.55;;;;;;;;;;5083204;28;20047;-62
2023/06/30 12:07:57;;;;;;;999.63;917.38;;;;;;;;;;5046826;28;20390;-63
2023/06/30 12:10:37;;;;;;;986.78;905.67;;;;;;;;;;5066748;28;20072;-63
2023/06/30 12:13:05;;;;;;;994.67;912.58;;;;;;;;;;5082908;28;20110;-65
2023/06/30 12:15:32;;;;;;;1011.10;926.85;;;;;;;;;;5076953;28;20110;-63
2023/06/30 12:18:00;;;;;;;1024.07;940.13;;;;;;;;;;5082457;28;20068;-62
2023/06/30 12:20:31;;;;;;;1089.03;996.83;;;;;;;;;;5061988;28;20036;-64
2023/06/30 12:22:59;;;;;;;1079.25;987.20;;;;;;;;;;5081690;28;20048;-64
2023/06/30 12:25:27;;;;;;;1041.45;954.90;;;;;;;;;;5080942;28;20059;-62
2023/06/30 12:27:54;;;;;;;1064.63;976.53;;;;;;;;;;5071019;28;20390;-62
2023/06/30 12:30:22;;;;;;;1053.38;964.97;;;;;;;;;;5083301;28;20417;-62
2023/06/30 12:32:55;;;;;;;1036.47;951.22;;;;;;;;;;5062916;28;20047;-62
2023/06/30 12:35:29;;;;;;;1013.63;929.97;;;;;;;;;;5083501;28;20115;-63
2023/06/30 12:37:59;;;;;;;1028.05;943.85;;;;;;;;;;5076994;28;20378;-63
2023/06/30 12:40:27;;;;;;;1022.05;936.80;;;;;;;;;;5060663;28;20044;-64
2023/06/30 12:42:54;;;;;;;1009.58;925.95;;;;;;;;;;5080343;28;20041;-63
2023/06/30 12:45:21;;;;;;;1081.05;989.40;;;;;;;;;;5083971;28;20050;-64
2023/06/30 12:47:48;;;;;;;1082.13;990.33;;;;;;;;;;5077312;28;20048;-63
2023/06/30 12:50:15;;;;;;;1087.10;995.13;;;;;;;;;;5080061;28;20375;-63
2023/06/30 12:52:43;;;;;;;1106.97;999.90;;;;;;;;;;5068724;28;20036;-63
2023/06/30 12:55:11;;;;;;;1083.95;991.45;;;;;;;;;;5067168;28;20630;-64
2023/06/30 12:57:40;;;;;;;1055.55;966.83;;;;;;;;;;5085458;28;20050;-64
2023/06/30 13:00:09;;;;;;;1065.72;977.50;;;;;;;;;;5021354;28;20049;-62
2023/06/30 13:02:36;;;;;;;1064.38;975.47;;;;;;;;;;5086444;28;20447;-62
2023/06/30 13:05:03;;;;;;;1067.90;979.03;;;;;;;;;;5084106;28;20083;-63
2023/06/30 13:07:32;;;;;;;1053.13;964.85;;;;;;;;;;5083246;28;20465;-63
2023/06/30 13:09:59;;;;;;;1017.65;932.28;;;;;;;;;;5061180;28;20146;-62
2023/06/30 13:12:26;;;;;;;999.35;916.53;;;;;;;;;;5069069;28;20054;-63
2023/06/30 13:14:53;;;;;;;990.30;909.90;;;;;;;;;;5063559;28;20409;-63
2023/06/30 13:17:20;;;;;;;957.67;878.05;;;;;;;;;;5083539;28;20096;-62
2023/06/30 13:19:49;;;;;;;963.35;882.58;;;;;;;;;;5087725;28;20043;-62
2023/06/30 13:22:16;;;;;;;953.22;871.78;;;;;;;;;;5085238;28;20047;-65
2023/06/30 13:24:46;;;;;;;929.67;852.75;;;;;;;;;;5083949;28;20050;-62
2023/06/30 13:27:12;;;;;;;951.95;873.67;;;;;;;;;;5083998;28;20489;-62
2023/06/30 13:29:46;;;;;;;947.17;869.53;;;;;;;;;;5085913;28;20055;-62
2023/06/30 13:32:13;;;;;;;953.47;875.60;;;;;;;;;;5083496;28;20040;-63
2023/06/30 13:34:39;;;;;;;956.63;878.63;;;;;;;;;;5085130;28;20358;-62
2023/06/30 13:37:06;;;;;;;947.55;868.92;;;;;;;;;;5061992;28;20068;-62
2023/06/30 13:39:33;;;;;;;944.42;868.35;;;;;;;;;;5082416;28;20048;-62
2023/06/30 13:42:01;;;;;;;935.25;858.63;;;;;;;;;;5048492;28;20495;-62
2023/06/30 13:44:29;;;;;;;922.35;846.70;;;;;;;;;;5064947;28;20489;-62
2023/06/30 13:46:55;;;;;;;933.13;856.60;;;;;;;;;;5071609;28;20043;-63
2023/06/30 13:49:22;;;;;;;926.30;848.65;;;;;;;;;;5083900;28;20044;-62
2023/06/30 13:51:49;;;;;;;905.60;831.63;;;;;;;;;;5065786;28;20044;-63
2023/06/30 13:54:16;;;;;;;918.40;844.00;;;;;;;;;;5085515;28;20044;-62
2023/06/30 13:56:43;;;;;;;909.90;834.70;;;;;;;;;;5084299;28;20098;-63
2023/06/30 13:59:09;;;;;;;913.80;839.40;;;;;;;;;;5084052;28;20401;-62
2023/06/30 14:01:36;;;;;;;902.90;829.08;;;;;;;;;;5084773;28;20040;-63
2023/06/30 14:04:05;;;;;;;909.22;834.67;;;;;;;;;;5081724;28;20516;-62
2023/06/30 14:06:32;;;;;;;918.42;842.67;;;;;;;;;;5081171;28;20548;-63
2023/06/30 14:08:59;;;;;;;916.20;842.10;;;;;;;;;;5065506;28;20751;-62
2023/06/30 14:11:25;;;;;;;937.28;860.67;;;;;;;;;;5082400;28;20119;-62
2023/06/30 14:13:53;;;;;;;930.60;853.90;;;;;;;;;;5081403;28;20492;-62
2023/06/30 14:16:19;;;;;;;973.92;891.08;;;;;;;;;;5073769;28;20093;-64
2023/06/30 14:18:46;;;;;;;994.95;912.90;;;;;;;;;;5066497;28;20051;-63